Newmains, United Kingdom
Current Conditions -  °F | °C
As of 12:20 AM on Tuesday 21 Oct 2014 (Local Time) from EGPF Reporting Station
Light Rain Light Rain  
Wind Chill: 55°   Ceiling: 1000
Heat Index: 55°   Visibility: 4mi
Dew Point: 52°   Wind: 16mph
Humidity: 88%   Direction: 190°S
Pressure: 29.32"   Gusts: NA
Location:  55.77°N, 3.88°W
Report Text: EGPF 202320Z AUTO 19014KT 6000 -RA BKN010/// BKN033/// //////CB 13/11 Q0993 RERA
Loading
Personal Weather Stations






























Interactive Weather Map
Tropical Storm Tracking
New forecast layout! Learn more

10-Day Weather Forecast

Advertisements
Track Severe Weather on mobile